Time;durP1;ratioP1;P1;durP2;ratioP2;P2;SDS_P1;SDS_P2;PMS_P1;PMS_P2;Temp;Humidity;BMP_temperature;BMP_pressure;BME280_temperature;BME280_humidity;BME280_pressure;Samples;Min_cycle;Max_cycle;Signal;HPM_P1;HPM_P2
2022/01/04 00:00:49;;;;;;;3.33;1.10;;;10.20;99.90;;;;;;5033874;28;20471;-67
2022/01/04 00:03:17;;;;;;;4.80;1.27;;;10.20;99.90;;;;;;5033469;28;20437;-67
2022/01/04 00:05:44;;;;;;;3.20;1.20;;;10.30;99.90;;;;;;5033472;28;20500;-67
2022/01/04 00:08:12;;;;;;;2.60;1.23;;;10.30;99.90;;;;;;5033385;28;20474;-67
2022/01/04 00:10:39;;;;;;;4.33;1.40;;;10.30;99.90;;;;;;5033325;28;20474;-67
2022/01/04 00:15:56;;;;;;;4.37;1.60;;;10.20;99.90;;;;;;5031605;28;20504;-67
2022/01/04 00:18:25;;;;;;;4.30;1.50;;;10.20;99.90;;;;;;5037417;28;20442;-67
2022/01/04 00:20:53;;;;;;;2.40;1.10;;;10.20;99.90;;;;;;5037264;28;20466;-67
2022/01/04 00:23:20;;;;;;;4.40;1.10;;;10.20;99.90;;;;;;5037129;28;20473;-67
2022/01/04 00:25:47;;;;;;;2.83;1.40;;;10.20;99.90;;;;;;5037290;28;20811;-67
2022/01/04 00:28:14;;;;;;;4.10;1.70;;;10.20;99.90;;;;;;5037181;28;20819;-67
2022/01/04 00:30:42;;;;;;;1.97;1.00;;;10.20;99.90;;;;;;5036850;28;21000;-67
2022/01/04 00:33:11;;;;;;;1.57;0.90;;;10.10;99.90;;;;;;5037366;28;20565;-67
2022/01/04 00:35:40;;;;;;;1.80;0.93;;;10.20;99.90;;;;;;5037034;28;20482;-67
2022/01/04 00:38:08;;;;;;;1.40;1.30;;;10.10;99.90;;;;;;5037100;28;20446;-67
2022/01/04 00:40:35;;;;;;;1.00;0.80;;;10.10;99.90;;;;;;5036972;28;20474;-67
2022/01/04 00:43:02;;;;;;;3.17;1.00;;;10.10;99.90;;;;;;5036998;28;20806;-67
2022/01/04 00:45:32;;;;;;;0.97;0.67;;;10.10;99.90;;;;;;5036975;28;20450;-67
2022/01/04 00:50:45;;;;;;;0.77;0.67;;;10.10;99.90;;;;;;5036920;28;20453;-67
2022/01/04 00:53:11;;;;;;;1.87;0.70;;;10.10;99.90;;;;;;5036780;28;20521;-67
2022/01/04 00:55:38;;;;;;;1.53;0.60;;;10.10;99.90;;;;;;5036660;28;20482;-67
2022/01/04 00:58:06;;;;;;;2.07;0.77;;;10.10;99.90;;;;;;5036649;28;20450;-67
2022/01/04 01:00:33;;;;;;;1.57;1.10;;;10.10;99.90;;;;;;5036549;28;20474;-67
2022/01/04 01:03:00;;;;;;;1.80;0.70;;;10.10;99.90;;;;;;5036613;28;20442;-67
2022/01/04 01:05:27;;;;;;;2.40;0.87;;;10.00;99.90;;;;;;5036518;28;20453;-67
2022/01/04 01:07:56;;;;;;;1.77;0.60;;;10.00;99.90;;;;;;5036500;28;20445;-66
2022/01/04 01:10:40;;;;;;;1.47;0.90;;;10.00;99.90;;;;;;5036133;28;20457;-67
2022/01/04 01:13:07;;;;;;;4.43;0.70;;;9.90;99.90;;;;;;5036370;28;20800;-67
2022/01/04 01:15:34;;;;;;;3.03;1.07;;;10.00;99.90;;;;;;5036721;28;20478;-66
2022/01/04 01:18:01;;;;;;;2.33;0.80;;;10.00;99.90;;;;;;5036233;28;20454;-66
2022/01/04 01:20:28;;;;;;;5.30;1.10;;;10.00;99.90;;;;;;5036152;28;20466;-67
2022/01/04 01:22:56;;;;;;;4.87;1.13;;;10.00;99.90;;;;;;5035065;28;20836;-67
2022/01/04 01:25:23;;;;;;;2.43;1.13;;;9.90;99.90;;;;;;5035960;28;20455;-67
2022/01/04 01:27:49;;;;;;;3.10;0.83;;;9.90;99.90;;;;;;5036173;28;20446;-67
2022/01/04 01:30:16;;;;;;;3.87;0.77;;;9.90;99.90;;;;;;5035726;28;20477;-67
2022/01/04 01:32:44;;;;;;;2.63;1.00;;;10.00;99.90;;;;;;5036095;28;20454;-67
2022/01/04 01:35:11;;;;;;;2.20;0.70;;;10.00;99.90;;;;;;5035938;28;20481;-67
2022/01/04 01:37:38;;;;;;;4.97;0.90;;;10.00;99.90;;;;;;5036197;28;20447;-67
2022/01/04 01:40:07;;;;;;;6.53;1.10;;;10.00;99.90;;;;;;5035589;28;20446;-67
2022/01/04 01:42:34;;;;;;;3.07;0.70;;;10.00;99.90;;;;;;5035923;28;20449;-67
2022/01/04 01:45:01;;;;;;;1.87;0.70;;;10.10;99.90;;;;;;5035845;28;20454;-67
2022/01/04 01:47:27;;;;;;;2.40;0.80;;;10.00;99.90;;;;;;5035765;28;20454;-67
2022/01/04 01:49:54;;;;;;;1.30;1.00;;;10.00;99.90;;;;;;5035721;28;20454;-68
2022/01/04 01:52:21;;;;;;;2.70;0.70;;;10.00;99.90;;;;;;5035775;28;20454;-67
2022/01/04 01:54:48;;;;;;;0.93;0.60;;;10.00;99.90;;;;;;5035850;28;20451;-67
2022/01/04 01:57:16;;;;;;;2.63;0.80;;;10.00;99.90;;;;;;5035562;28;20481;-67
2022/01/04 01:59:43;;;;;;;2.53;0.77;;;10.00;99.90;;;;;;5035717;28;20825;-68
2022/01/04 02:02:10;;;;;;;3.00;1.20;;;10.00;99.90;;;;;;5036827;28;20467;-67
2022/01/04 02:04:36;;;;;;;3.83;1.20;;;10.00;99.90;;;;;;5036239;28;20823;-67
2022/01/04 02:07:04;;;;;;;3.90;0.90;;;10.00;99.90;;;;;;5035960;28;20446;-67
2022/01/04 02:09:33;;;;;;;3.43;1.10;;;9.90;99.90;;;;;;5035670;28;20447;-67
2022/01/04 02:12:00;;;;;;;4.63;1.17;;;9.90;99.90;;;;;;5035306;28;20463;-67
2022/01/04 02:14:28;;;;;;;5.00;1.33;;;9.90;99.90;;;;;;5035310;28;20443;-67
2022/01/04 02:16:54;;;;;;;2.80;1.00;;;9.90;99.90;;;;;;5035398;28;20504;-67
2022/01/04 02:19:21;;;;;;;3.10;1.07;;;10.00;99.90;;;;;;5034895;28;20987;-67
2022/01/04 02:21:51;;;;;;;3.93;0.97;;;9.90;99.90;;;;;;5035135;28;20467;-67
2022/01/04 02:24:17;;;;;;;6.43;1.30;;;10.00;99.90;;;;;;5034726;28;20458;-67
2022/01/04 02:26:44;;;;;;;1.83;0.87;;;10.00;99.90;;;;;;5035061;28;20445;-67
2022/01/04 02:29:11;;;;;;;0.77;0.60;;;10.00;99.90;;;;;;5034998;28;20454;-67
2022/01/04 02:31:38;;;;;;;1.50;1.00;;;10.00;99.90;;;;;;5034865;28;20512;-67
2022/01/04 02:34:05;;;;;;;1.70;0.80;;;10.00;99.90;;;;;;5034572;28;20439;-67
2022/01/04 02:36:32;;;;;;;0.80;0.80;;;10.00;99.90;;;;;;5034678;28;20486;-67
2022/01/04 02:39:00;;;;;;;0.67;0.53;;;10.00;99.90;;;;;;5034761;28;20446;-67
2022/01/04 02:41:26;;;;;;;1.07;0.77;;;10.00;99.90;;;;;;5034704;28;20478;-67
2022/01/04 02:43:53;;;;;;;1.17;0.80;;;10.00;99.90;;;;;;5034402;28;20941;-67
2022/01/04 02:46:20;;;;;;;1.50;0.77;;;10.00;99.90;;;;;;5034665;28;20446;-67
2022/01/04 02:48:47;;;;;;;1.03;0.70;;;9.90;99.90;;;;;;5034623;28;20447;-67
2022/01/04 02:51:14;;;;;;;1.73;0.60;;;9.90;99.90;;;;;;5034830;28;20462;-67
2022/01/04 02:53:41;;;;;;;2.80;1.00;;;10.00;99.90;;;;;;5034260;28;20941;-67
2022/01/04 02:56:09;;;;;;;3.70;0.87;;;10.00;99.90;;;;;;5034290;28;21098;-67
2022/01/04 02:58:36;;;;;;;2.30;0.80;;;10.00;99.90;;;;;;5034407;28;20435;-67
2022/01/04 03:01:03;;;;;;;2.60;0.90;;;9.90;99.90;;;;;;5034240;28;20466;-67
2022/01/04 03:03:30;;;;;;;1.37;0.80;;;9.90;99.90;;;;;;5034046;28;20964;-67
2022/01/04 03:05:57;;;;;;;2.20;1.13;;;9.90;99.90;;;;;;5034303;28;20457;-67
2022/01/04 03:08:25;;;;;;;0.97;0.67;;;9.90;99.90;;;;;;5034235;28;20450;-67
2022/01/04 03:10:52;;;;;;;1.13;0.90;;;9.90;99.90;;;;;;5034164;28;20470;-67
2022/01/04 03:13:20;;;;;;;1.17;0.70;;;9.90;99.90;;;;;;5034133;28;20442;-67
2022/01/04 03:15:48;;;;;;;0.80;0.70;;;9.90;99.90;;;;;;5034060;28;20994;-67
2022/01/04 03:18:15;;;;;;;3.50;0.60;;;9.90;99.90;;;;;;5034104;28;20446;-67
2022/01/04 03:20:41;;;;;;;1.10;0.80;;;9.90;99.90;;;;;;5034005;28;20474;-67
2022/01/04 03:23:10;;;;;;;1.60;1.03;;;9.90;99.90;;;;;;5033744;28;20470;-67
2022/01/04 03:25:38;;;;;;;1.00;0.90;;;9.90;99.90;;;;;;5033951;28;20521;-67
2022/01/04 03:28:05;;;;;;;1.27;1.00;;;9.90;99.90;;;;;;5033902;28;20795;-67
2022/01/04 03:30:34;;;;;;;1.97;1.07;;;9.80;99.90;;;;;;5033492;28;21008;-67
2022/01/04 03:33:01;;;;;;;0.50;0.50;;;9.80;99.90;;;;;;5033823;28;20454;-66
2022/01/04 03:35:28;;;;;;;5.07;1.10;;;9.80;99.90;;;;;;5033720;28;20458;-66
2022/01/04 03:37:55;;;;;;;1.60;0.87;;;9.80;99.90;;;;;;5033810;28;20450;-66
2022/01/04 03:40:21;;;;;;;3.00;0.80;;;9.90;99.90;;;;;;5033726;28;20475;-66
2022/01/04 03:42:48;;;;;;;2.93;0.87;;;9.90;99.90;;;;;;5033664;28;20457;-66
2022/01/04 03:45:15;;;;;;;1.57;0.80;;;9.90;99.90;;;;;;5033648;28;20451;-66
2022/01/04 03:47:43;;;;;;;1.93;0.83;;;9.90;99.90;;;;;;5032630;28;20955;-66
2022/01/04 03:50:10;;;;;;;2.73;1.20;;;10.00;99.90;;;;;;5033575;28;20454;-66
2022/01/04 03:52:37;;;;;;;2.30;0.87;;;10.00;99.90;;;;;;5033416;28;20459;-66
2022/01/04 03:55:05;;;;;;;1.67;1.00;;;9.90;99.90;;;;;;5033283;28;20449;-66
2022/01/04 03:57:31;;;;;;;1.60;0.93;;;9.90;99.90;;;;;;5033744;28;20474;-66
2022/01/04 03:59:58;;;;;;;2.53;1.00;;;10.00;99.90;;;;;;5033123;28;20912;-66
2022/01/04 04:02:25;;;;;;;2.10;1.10;;;10.00;99.90;;;;;;5033537;28;20454;-66
2022/01/04 04:04:53;;;;;;;1.23;0.97;;;10.00;99.90;;;;;;5033229;28;20431;-66
2022/01/04 04:07:20;;;;;;;3.93;1.00;;;10.00;99.90;;;;;;5033181;28;20808;-66
2022/01/04 04:09:46;;;;;;;1.77;1.10;;;10.00;99.90;;;;;;5033427;28;20454;-66
2022/01/04 04:12:14;;;;;;;2.47;0.80;;;10.00;99.90;;;;;;5033304;28;20470;-66
2022/01/04 04:14:41;;;;;;;3.13;1.47;;;10.00;99.90;;;;;;5033189;28;20979;-66
2022/01/04 04:17:07;;;;;;;3.27;0.93;;;10.00;99.90;;;;;;5033482;28;20478;-66
2022/01/04 04:19:35;;;;;;;2.03;0.93;;;10.00;99.90;;;;;;5033377;28;20446;-66
2022/01/04 04:22:03;;;;;;;2.33;1.00;;;10.00;99.90;;;;;;5033305;28;20885;-66
2022/01/04 04:24:30;;;;;;;1.43;0.90;;;10.00;99.90;;;;;;5033404;28;20442;-66
2022/01/04 04:26:56;;;;;;;1.47;1.17;;;10.00;99.90;;;;;;5033345;28;20529;-66
2022/01/04 04:29:23;;;;;;;2.20;1.17;;;9.90;99.90;;;;;;5032970;28;20443;-66
2022/01/04 04:31:50;;;;;;;3.20;0.83;;;9.90;99.90;;;;;;5033192;28;20466;-66
2022/01/04 04:34:16;;;;;;;4.57;1.50;;;9.90;99.90;;;;;;5033269;28;20453;-66
2022/01/04 04:36:43;;;;;;;2.53;1.40;;;9.90;99.90;;;;;;5033120;28;20488;-66
2022/01/04 04:39:11;;;;;;;4.60;1.43;;;9.90;99.90;;;;;;5033241;28;20451;-66
2022/01/04 04:41:38;;;;;;;2.07;1.13;;;9.80;99.90;;;;;;5033160;28;20477;-66
2022/01/04 04:44:05;;;;;;;3.87;1.50;;;9.90;99.90;;;;;;5033196;28;20458;-66
2022/01/04 04:46:31;;;;;;;3.37;1.10;;;9.90;99.90;;;;;;5033196;28;20445;-66
2022/01/04 04:48:59;;;;;;;4.60;1.20;;;9.90;99.90;;;;;;5033130;28;20825;-66
2022/01/04 04:51:27;;;;;;;8.43;1.10;;;9.80;99.90;;;;;;5033000;28;20553;-66
2022/01/04 04:53:54;;;;;;;4.87;1.90;;;9.80;99.90;;;;;;5033012;28;20450;-66
2022/01/04 04:56:22;;;;;;;6.77;1.77;;;9.90;99.90;;;;;;5033110;28;20485;-66
2022/01/04 04:58:48;;;;;;;4.43;2.00;;;9.90;99.90;;;;;;5035714;28;20454;-66
2022/01/04 05:01:15;;;;;;;3.37;1.20;;;9.90;99.90;;;;;;5037097;28;20466;-66
2022/01/04 05:03:42;;;;;;;4.93;1.97;;;9.80;99.90;;;;;;5037623;28;20455;-66
2022/01/04 05:06:09;;;;;;;4.60;1.90;;;9.90;99.90;;;;;;5038161;28;20450;-66
2022/01/04 05:08:35;;;;;;;6.43;2.70;;;9.80;99.90;;;;;;5037102;28;20437;-66
2022/01/04 05:11:02;;;;;;;3.73;2.73;;;9.90;99.90;;;;;;5037543;28;20462;-66
2022/01/04 05:13:30;;;;;;;2.80;2.43;;;9.90;99.90;;;;;;5036732;28;20901;-66
2022/01/04 05:15:57;;;;;;;8.90;2.97;;;9.90;99.90;;;;;;5036670;28;20477;-66
2022/01/04 05:18:24;;;;;;;4.80;3.00;;;9.90;99.90;;;;;;5036468;28;20486;-66
2022/01/04 05:20:51;;;;;;;4.23;3.20;;;9.90;99.90;;;;;;5036502;28;20472;-67
2022/01/04 05:23:18;;;;;;;4.50;2.80;;;9.90;99.90;;;;;;5036018;28;20538;-66
2022/01/04 05:25:44;;;;;;;4.40;2.70;;;9.90;99.90;;;;;;5036054;28;20473;-66
2022/01/04 05:28:11;;;;;;;5.90;2.93;;;9.90;99.90;;;;;;5036184;28;20443;-66
2022/01/04 05:30:39;;;;;;;5.20;2.97;;;10.00;99.90;;;;;;5036010;28;20470;-67
2022/01/04 05:33:06;;;;;;;2.40;2.07;;;9.90;99.90;;;;;;5035966;28;20458;-66
2022/01/04 05:35:33;;;;;;;6.80;2.50;;;10.00;99.90;;;;;;5035663;28;20454;-66
2022/01/04 05:38:00;;;;;;;5.30;2.23;;;9.90;99.90;;;;;;5035930;28;20485;-66
2022/01/04 05:40:26;;;;;;;4.27;2.53;;;9.90;99.90;;;;;;5035766;28;20471;-67
2022/01/04 05:42:53;;;;;;;2.83;1.60;;;9.80;99.90;;;;;;5035763;28;20447;-67
2022/01/04 05:45:20;;;;;;;5.50;2.20;;;9.80;99.90;;;;;;5035755;28;20442;-66
2022/01/04 05:47:48;;;;;;;3.20;2.37;;;9.80;99.90;;;;;;5035309;28;20446;-66
2022/01/04 05:50:15;;;;;;;2.30;1.77;;;9.80;99.90;;;;;;5035266;28;21040;-67
2022/01/04 05:52:42;;;;;;;2.17;1.90;;;9.80;99.90;;;;;;5035274;28;20442;-67
2022/01/04 05:55:10;;;;;;;6.47;2.63;;;9.80;99.90;;;;;;5035641;28;20793;-67
2022/01/04 05:57:37;;;;;;;4.40;1.60;;;9.70;99.90;;;;;;5035083;28;20996;-67
2022/01/04 06:00:06;;;;;;;1.90;1.80;;;9.80;99.90;;;;;;5035259;28;20496;-67
2022/01/04 06:02:32;;;;;;;2.90;1.40;;;9.70;99.90;;;;;;5035475;28;20450;-66
2022/01/04 06:05:01;;;;;;;3.03;1.67;;;9.80;99.90;;;;;;5035310;28;20446;-67
2022/01/04 06:07:28;;;;;;;4.53;2.50;;;9.80;99.90;;;;;;5035310;28;20501;-66
2022/01/04 06:09:55;;;;;;;2.97;1.90;;;9.90;99.90;;;;;;5034567;28;20469;-66
2022/01/04 06:15:09;;;;;;;2.70;1.97;;;9.80;99.90;;;;;;5035439;28;20430;-66
2022/01/04 06:17:38;;;;;;;4.57;2.57;;;9.70;99.90;;;;;;5033943;28;20487;-66
2022/01/04 06:20:08;;;;;;;3.73;2.10;;;9.80;99.90;;;;;;5034680;28;20894;-66
2022/01/04 06:22:36;;;;;;;2.90;2.63;;;9.70;99.90;;;;;;5034834;28;20976;-67
2022/01/04 06:25:05;;;;;;;4.73;2.37;;;9.80;99.90;;;;;;5035123;28;20477;-66
2022/01/04 06:27:32;;;;;;;4.93;2.77;;;9.70;99.90;;;;;;5034728;28;20446;-66
2022/01/04 06:29:59;;;;;;;4.87;2.10;;;9.80;99.90;;;;;;5034542;28;20439;-66
2022/01/04 06:32:26;;;;;;;5.43;2.00;;;9.80;99.90;;;;;;5034956;28;20450;-66
2022/01/04 06:34:53;;;;;;;2.57;2.00;;;9.80;99.90;;;;;;5034913;28;20450;-66
2022/01/04 06:37:22;;;;;;;3.47;2.63;;;9.80;99.90;;;;;;5034796;28;20478;-66
2022/01/04 06:39:49;;;;;;;7.60;2.30;;;9.80;99.90;;;;;;5034525;28;20952;-66
2022/01/04 06:42:15;;;;;;;3.80;2.60;;;9.80;99.90;;;;;;5035005;28;20470;-66
2022/01/04 06:44:43;;;;;;;4.90;2.57;;;9.80;99.90;;;;;;5034749;28;20822;-66
2022/01/04 06:47:11;;;;;;;5.00;2.60;;;9.80;99.90;;;;;;5034318;28;20857;-66
2022/01/04 06:49:38;;;;;;;7.10;3.40;;;9.80;99.90;;;;;;5034582;28;20450;-66
2022/01/04 06:52:05;;;;;;;6.03;3.50;;;9.80;99.90;;;;;;5034511;28;20466;-67
2022/01/04 06:54:33;;;;;;;5.73;3.90;;;9.80;99.90;;;;;;5034523;28;20457;-66
2022/01/04 06:57:00;;;;;;;4.20;3.40;;;9.70;99.90;;;;;;5034149;28;20998;-66
2022/01/04 06:59:27;;;;;;;5.07;3.77;;;9.70;99.90;;;;;;5034694;28;20871;-66
2022/01/04 07:01:53;;;;;;;9.90;3.80;;;9.70;99.90;;;;;;5034049;28;20532;-66
2022/01/04 07:04:20;;;;;;;5.07;4.37;;;9.70;99.90;;;;;;5034068;28;20908;-66
2022/01/04 07:06:47;;;;;;;7.10;4.73;;;9.70;99.90;;;;;;5034189;28;20442;-66
2022/01/04 07:09:14;;;;;;;7.90;5.20;;;9.60;99.90;;;;;;5033867;28;20454;-66
2022/01/04 07:11:42;;;;;;;9.07;5.13;;;9.60;99.90;;;;;;5034194;28;20466;-66
2022/01/04 07:14:09;;;;;;;11.10;5.07;;;9.60;99.90;;;;;;5034244;28;20455;-66
2022/01/04 07:16:36;;;;;;;9.73;5.93;;;9.60;99.90;;;;;;5034185;28;20439;-66
2022/01/04 07:19:02;;;;;;;10.33;6.27;;;9.60;99.90;;;;;;5034198;28;20836;-66
2022/01/04 07:21:29;;;;;;;16.50;7.07;;;9.60;99.90;;;;;;5034792;28;20470;-66
2022/01/04 07:23:56;;;;;;;9.20;7.03;;;9.70;99.90;;;;;;5033752;28;20454;-66
2022/01/04 07:26:24;;;;;;;12.80;5.70;;;9.70;99.90;;;;;;5034081;28;20450;-66
2022/01/04 07:28:52;;;;;;;14.80;5.83;;;9.70;99.90;;;;;;5033547;28;20955;-67
2022/01/04 07:31:20;;;;;;;16.00;7.70;;;9.70;99.90;;;;;;5033843;28;20517;-66
2022/01/04 07:33:46;;;;;;;7.80;5.00;;;9.70;99.90;;;;;;5033906;28;20520;-66
2022/01/04 07:36:14;;;;;;;11.33;5.07;;;9.70;99.90;;;;;;5033922;28;20445;-66
2022/01/04 07:38:41;;;;;;;9.60;4.40;;;9.80;99.90;;;;;;5033418;28;20479;-66
2022/01/04 07:41:07;;;;;;;8.70;4.83;;;9.70;99.90;;;;;;5033361;28;20993;-66
2022/01/04 07:43:34;;;;;;;6.87;3.73;;;9.70;99.90;;;;;;5033776;28;20971;-66
2022/01/04 07:46:03;;;;;;;5.60;4.30;;;9.70;99.90;;;;;;5033788;28;20789;-66
2022/01/04 07:48:29;;;;;;;7.57;4.93;;;9.80;99.90;;;;;;5033928;28;20439;-66
2022/01/04 07:50:58;;;;;;;5.60;4.20;;;9.80;99.90;;;;;;5033594;28;20470;-67
2022/01/04 07:53:25;;;;;;;5.90;4.50;;;9.80;99.90;;;;;;5033815;28;20450;-66
2022/01/04 07:55:52;;;;;;;6.70;4.80;;;9.80;99.90;;;;;;5033890;28;20442;-66
2022/01/04 07:58:20;;;;;;;9.57;5.43;;;9.80;99.90;;;;;;5033567;28;20488;-66
2022/01/04 08:00:46;;;;;;;8.30;5.10;;;9.70;99.90;;;;;;5033662;28;20467;-66
2022/01/04 08:03:15;;;;;;;7.00;4.47;;;9.70;99.90;;;;;;5033472;28;20499;-66
2022/01/04 08:05:41;;;;;;;7.23;5.00;;;9.70;99.90;;;;;;5033439;28;20446;-66
2022/01/04 08:08:09;;;;;;;8.33;5.23;;;9.70;99.90;;;;;;5033405;28;20477;-66
2022/01/04 08:10:36;;;;;;;6.60;3.80;;;9.70;99.90;;;;;;5033774;28;20584;-66
2022/01/04 08:13:03;;;;;;;6.63;4.30;;;9.60;99.90;;;;;;5033665;28;20447;-66
2022/01/04 08:15:30;;;;;;;8.53;5.03;;;9.60;99.90;;;;;;5033729;28;20438;-66
2022/01/04 08:17:57;;;;;;;8.17;4.50;;;9.60;99.90;;;;;;5033500;28;20482;-66
2022/01/04 08:20:26;;;;;;;8.93;4.73;;;9.50;99.90;;;;;;5033495;28;20474;-66
2022/01/04 08:22:53;;;;;;;8.97;5.63;;;9.40;99.90;;;;;;5033109;28;20462;-66
2022/01/04 08:25:20;;;;;;;7.47;5.20;;;9.40;99.90;;;;;;5033287;28;20797;-66
2022/01/04 08:27:47;;;;;;;6.80;5.20;;;9.50;99.90;;;;;;5033200;28;20818;-66
2022/01/04 08:30:15;;;;;;;11.20;5.37;;;9.50;99.90;;;;;;5032837;28;20463;-66
2022/01/04 08:32:42;;;;;;;8.20;6.17;;;9.50;99.90;;;;;;5033779;28;20928;-66
2022/01/04 08:35:09;;;;;;;9.37;5.93;;;9.60;99.90;;;;;;5037176;28;20442;-66
2022/01/04 08:37:38;;;;;;;10.87;5.80;;;9.60;99.90;;;;;;5037021;28;20486;-66
2022/01/04 08:40:06;;;;;;;5.83;4.40;;;9.60;99.90;;;;;;5036707;28;20955;-66
2022/01/04 08:42:33;;;;;;;5.90;4.87;;;9.60;99.90;;;;;;5035764;28;20447;-66
2022/01/04 08:45:00;;;;;;;5.23;4.67;;;9.60;99.90;;;;;;5037093;28;20451;-66
2022/01/04 08:47:27;;;;;;;8.23;5.40;;;9.60;99.90;;;;;;5036613;28;20451;-66
2022/01/04 08:49:54;;;;;;;10.43;5.20;;;9.60;99.90;;;;;;5036612;28;21006;-66
2022/01/04 08:52:21;;;;;;;4.83;4.30;;;9.60;99.90;;;;;;5036886;28;20446;-66
2022/01/04 08:54:49;;;;;;;6.57;5.20;;;9.60;99.90;;;;;;5036474;28;20948;-66
2022/01/04 08:57:16;;;;;;;7.40;4.70;;;9.60;99.90;;;;;;5036724;28;20449;-66
2022/01/04 08:59:42;;;;;;;6.20;4.90;;;9.60;99.90;;;;;;5036734;28;20454;-66
2022/01/04 09:02:09;;;;;;;6.83;5.20;;;9.50;99.90;;;;;;5036588;28;20516;-67
2022/01/04 09:04:36;;;;;;;6.30;4.90;;;9.40;99.90;;;;;;5036579;28;20449;-66
2022/01/04 09:07:03;;;;;;;9.57;6.43;;;9.40;99.90;;;;;;5036753;28;20903;-66
2022/01/04 09:09:30;;;;;;;5.80;4.90;;;9.40;99.90;;;;;;5036276;28;20901;-67
2022/01/04 09:11:58;;;;;;;10.03;5.40;;;9.50;99.90;;;;;;5036664;28;20469;-67
2022/01/04 09:14:29;;;;;;;5.37;4.87;;;9.50;99.90;;;;;;5036496;28;20442;-67
2022/01/04 09:19:41;;;;;;;5.83;3.53;;;9.50;99.90;;;;;;5036417;28;20974;-66
2022/01/04 09:22:07;;;;;;;4.20;3.00;;;9.50;99.90;;;;;;5035820;28;20995;-66
2022/01/04 09:24:35;;;;;;;5.80;3.77;;;9.40;99.90;;;;;;5036335;28;20430;-66
2022/01/04 09:27:06;;;;;;;5.23;4.70;;;9.40;99.90;;;;;;5035940;28;20442;-66
2022/01/04 09:29:33;;;;;;;6.80;4.77;;;9.40;99.90;;;;;;5036212;28;20426;-66
2022/01/04 09:32:02;;;;;;;4.93;4.07;;;9.40;99.90;;;;;;5036022;28;20469;-66
2022/01/04 09:34:29;;;;;;;6.27;4.40;;;9.40;99.90;;;;;;5036055;28;20427;-66
2022/01/04 09:36:56;;;;;;;6.80;5.57;;;9.40;99.90;;;;;;5035767;28;20430;-66
2022/01/04 09:39:25;;;;;;;7.00;4.80;;;9.50;99.90;;;;;;5035966;28;20481;-66
2022/01/04 09:41:55;;;;;;;6.63;4.63;;;9.50;99.90;;;;;;5035654;28;20455;-66
2022/01/04 09:44:25;;;;;;;8.30;4.60;;;9.60;99.90;;;;;;5034805;28;20431;-66
2022/01/04 09:46:52;;;;;;;3.13;2.63;;;9.60;99.90;;;;;;5035844;28;20458;-66
2022/01/04 09:49:18;;;;;;;6.40;3.30;;;9.60;99.90;;;;;;5035779;28;20446;-66
2022/01/04 09:51:46;;;;;;;4.20;3.43;;;9.50;99.90;;;;;;5035563;28;20506;-66
2022/01/04 09:54:13;;;;;;;3.53;3.13;;;9.50;99.90;;;;;;5035729;28;20521;-66
2022/01/04 09:56:40;;;;;;;7.30;3.40;;;9.50;99.90;;;;;;5035866;28;20450;-66
2022/01/04 09:59:07;;;;;;;2.83;2.50;;;9.50;99.90;;;;;;5035290;28;20485;-66
2022/01/04 10:01:38;;;;;;;4.47;3.37;;;9.40;99.90;;;;;;5035189;28;20992;-66
2022/01/04 10:04:06;;;;;;;3.83;2.60;;;9.40;99.90;;;;;;5035603;28;20431;-66
2022/01/04 10:06:34;;;;;;;6.90;3.87;;;9.40;99.90;;;;;;5036113;28;20453;-66
2022/01/04 10:09:04;;;;;;;4.00;3.60;;;9.30;99.90;;;;;;5036284;28;20803;-66
2022/01/04 10:11:33;;;;;;;8.43;3.53;;;9.20;99.90;;;;;;5035067;28;20998;-66
2022/01/04 10:14:01;;;;;;;5.97;3.90;;;9.30;99.90;;;;;;5035022;28;20447;-66
2022/01/04 10:16:28;;;;;;;8.07;4.23;;;9.20;99.90;;;;;;5035413;28;20499;-66
2022/01/04 10:18:56;;;;;;;6.47;4.30;;;9.20;99.90;;;;;;5035252;28;20528;-66
2022/01/04 10:21:23;;;;;;;5.50;4.27;;;9.20;99.90;;;;;;5035189;28;20469;-66
2022/01/04 10:23:54;;;;;;;5.17;3.90;;;9.20;99.90;;;;;;5034863;28;20463;-66
2022/01/04 10:26:35;;;;;;;6.40;5.00;;;9.10;99.90;;;;;;5035876;28;20465;-66
2022/01/04 10:29:03;;;;;;;5.87;5.00;;;9.10;99.90;;;;;;5035152;28;20418;-66
2022/01/04 10:31:38;;;;;;;5.63;4.73;;;9.10;99.90;;;;;;5034817;28;20446;-66
2022/01/04 10:34:07;;;;;;;5.53;4.90;;;9.10;99.90;;;;;;5035086;28;20830;-66
2022/01/04 10:36:39;;;;;;;5.40;4.73;;;9.00;99.90;;;;;;5034912;28;20860;-66
2022/01/04 10:39:08;;;;;;;8.93;5.53;;;9.00;99.90;;;;;;5034831;28;20471;-66
2022/01/04 10:41:35;;;;;;;7.37;5.60;;;9.00;99.90;;;;;;5034785;28;20493;-66
2022/01/04 10:44:07;;;;;;;5.40;4.90;;;9.00;99.90;;;;;;5035606;28;20450;-66
2022/01/04 10:46:35;;;;;;;8.00;6.60;;;9.00;99.90;;;;;;5035010;28;20489;-66
2022/01/04 10:49:13;;;;;;;8.27;6.07;;;9.00;99.90;;;;;;5034691;28;20451;-66
2022/01/04 10:51:41;;;;;;;7.40;5.90;;;8.90;99.90;;;;;;5034667;28;20477;-66
2022/01/04 10:54:08;;;;;;;8.10;6.70;;;8.90;99.90;;;;;;5034839;28;20447;-66
2022/01/04 10:56:38;;;;;;;7.17;6.47;;;8.90;99.90;;;;;;5034271;28;20443;-66
2022/01/04 10:59:07;;;;;;;8.40;6.53;;;8.90;99.90;;;;;;5034158;28;21010;-66
2022/01/04 11:01:41;;;;;;;7.77;6.93;;;9.00;99.90;;;;;;5034649;28;20469;-66
2022/01/04 11:04:13;;;;;;;6.63;5.93;;;9.00;99.90;;;;;;5034314;28;20435;-66
2022/01/04 11:06:42;;;;;;;11.10;7.10;;;8.90;99.90;;;;;;5034528;28;20431;-66
2022/01/04 11:09:10;;;;;;;10.13;8.00;;;8.90;99.90;;;;;;5034494;28;20500;-66
2022/01/04 11:11:37;;;;;;;9.27;6.70;;;9.00;99.90;;;;;;5034131;28;21039;-66
2022/01/04 11:14:04;;;;;;;7.80;6.57;;;9.00;99.90;;;;;;5034436;28;20450;-66
2022/01/04 11:16:32;;;;;;;7.60;5.90;;;9.00;99.90;;;;;;5034656;28;20822;-66
2022/01/04 11:19:01;;;;;;;9.17;7.33;;;9.00;99.90;;;;;;5037680;28;20482;-65
2022/01/04 11:21:31;;;;;;;6.80;6.10;;;8.90;99.90;;;;;;5037682;28;20869;-66
2022/01/04 11:24:01;;;;;;;9.20;7.80;;;8.90;99.90;;;;;;5034699;28;20466;-66
2022/01/04 11:26:28;;;;;;;9.57;7.20;;;8.90;99.90;;;;;;5034445;28;20439;-66
2022/01/04 11:28:56;;;;;;;10.13;6.37;;;9.00;99.90;;;;;;5034166;28;20442;-66
2022/01/04 11:31:38;;;;;;;8.57;6.00;;;9.10;99.90;;;;;;5034075;28;20466;-66
2022/01/04 11:34:12;;;;;;;8.60;6.87;;;9.10;99.90;;;;;;5034002;28;20806;-65
2022/01/04 11:36:40;;;;;;;11.07;6.17;;;9.10;99.90;;;;;;5034043;28;20451;-65
2022/01/04 11:39:30;;;;;;;6.77;6.00;;;9.10;99.90;;;;;;5033772;28;20474;-65
2022/01/04 11:41:59;;;;;;;8.73;7.10;;;9.10;99.90;;;;;;5033699;28;20465;-66
2022/01/04 11:44:28;;;;;;;8.00;6.53;;;9.10;99.90;;;;;;5034063;28;20446;-67
2022/01/04 11:47:04;;;;;;;9.20;6.50;;;9.10;99.90;;;;;;5034553;28;20438;-67
2022/01/04 11:49:32;;;;;;;8.63;7.50;;;9.20;99.90;;;;;;5033974;28;20809;-65
2022/01/04 11:51:58;;;;;;;40.67;8.60;;;9.20;99.90;;;;;;5033236;28;20469;-65
2022/01/04 11:54:27;;;;;;;7.80;6.80;;;9.20;99.90;;;;;;5033555;28;20449;-65
2022/01/04 11:56:58;;;;;;;9.27;6.23;;;9.30;99.90;;;;;;5033546;28;20500;-65
2022/01/04 11:59:26;;;;;;;7.53;5.93;;;9.30;99.90;;;;;;5033314;28;20976;-65
2022/01/04 12:01:55;;;;;;;9.97;6.70;;;9.40;99.90;;;;;;5033468;28;20473;-65
2022/01/04 12:04:53;;;;;;;7.20;6.50;;;9.40;99.90;;;;;;5033522;28;20482;-65
2022/01/04 12:07:45;;;;;;;10.80;6.60;;;9.50;99.90;;;;;;5027120;28;20458;-65
2022/01/04 12:10:49;;;;;;;9.93;6.60;;;9.60;99.90;;;;;;5033451;28;20472;-66
2022/01/04 12:13:18;;;;;;;7.37;6.67;;;9.50;99.90;;;;;;5033690;28;20437;-65
2022/01/04 12:15:54;;;;;;;8.63;6.43;;;9.40;99.90;;;;;;5033446;28;20442;-65
2022/01/04 12:19:00;;;;;;;10.13;6.73;;;9.40;99.90;;;;;;5033008;28;20426;-65
2022/01/04 12:21:33;;;;;;;11.90;8.00;;;9.30;99.90;;;;;;5033014;28;20462;-65
2022/01/04 12:24:01;;;;;;;9.50;6.80;;;9.30;99.90;;;;;;5033023;28;20466;-65
2022/01/04 12:26:32;;;;;;;11.67;8.07;;;9.30;99.90;;;;;;5032955;28;20805;-65
2022/01/04 12:29:25;;;;;;;8.67;7.60;;;9.30;99.90;;;;;;5033397;28;20427;-65
2022/01/04 12:31:55;;;;;;;9.73;8.70;;;9.30;99.90;;;;;;5034023;28;20462;-65
2022/01/04 12:34:31;;;;;;;12.30;9.17;;;9.30;99.90;;;;;;5033339;28;20423;-65
2022/01/04 12:36:59;;;;;;;9.70;8.23;;;9.30;99.90;;;;;;5032970;28;20931;-65
2022/01/04 12:39:33;;;;;;;14.40;9.73;;;9.40;99.90;;;;;;5032806;28;21018;-65
2022/01/04 12:42:00;;;;;;;9.63;8.20;;;9.30;99.90;;;;;;5033140;28;20477;-65
2022/01/04 12:44:30;;;;;;;12.03;8.73;;;9.30;99.90;;;;;;5033138;28;20455;-65
2022/01/04 12:46:57;;;;;;;10.53;8.83;;;9.30;99.90;;;;;;5033061;28;20473;-65
2022/01/04 12:49:27;;;;;;;14.33;10.30;;;9.30;99.90;;;;;;5032768;28;20962;-65
2022/01/04 12:51:56;;;;;;;14.70;9.87;;;9.30;99.90;;;;;;5032964;28;20466;-65
2022/01/04 12:54:23;;;;;;;13.83;9.70;;;9.30;99.90;;;;;;5033076;28;20541;-65
2022/01/04 12:56:52;;;;;;;13.73;9.27;;;9.40;99.90;;;;;;5033042;28;20596;-65
2022/01/04 12:59:30;;;;;;;11.03;8.73;;;9.40;99.90;;;;;;5032664;28;21022;-65
2022/01/04 13:01:58;;;;;;;15.00;10.53;;;9.40;99.90;;;;;;5032877;28;20469;-65
2022/01/04 13:04:28;;;;;;;17.00;10.17;;;9.40;99.90;;;;;;5032944;28;20451;-65
2022/01/04 13:06:56;;;;;;;12.40;9.67;;;9.40;99.90;;;;;;5032897;28;20454;-65
2022/01/04 13:09:24;;;;;;;12.27;9.40;;;9.50;99.90;;;;;;5032885;28;20446;-65